Aviation Digital Data Service (ADDS)

Output produced by METARs form (0514 UTC 18 February 2018)
found at http://aviationweather.gov/adds/metars/
 
KISP 180412Z 1804/1824 VRB03KT 1SM -SN BR BKN004 OVC012 
     TEMPO 1804/1807 2SM -SN BR SCT004 OVC015 
     FM180700 36005KT 3SM -SN BR BKN009 OVC015 
     FM181000 31008KT P6SM BKN015 BKN035 
     FM181300 32015G23KT P6SM FEW035 
     FM181900 27008KT P6SM SKC 
     FM182300 VRB03KT P6SM SKC